sensor_id;sensor_type;location;lat;lon;timestamp;P1;durP1;ratioP1;P2;durP2;ratioP2
25984;SDS011;66753;53.848;10.658;2023-03-23T00:05:12;6.80;;;2.67;;
25984;SDS011;66753;53.848;10.658;2023-03-23T00:15:13;4.15;;;2.60;;
25984;SDS011;66753;53.848;10.658;2023-03-23T00:25:16;5.55;;;2.75;;
25984;SDS011;66753;53.848;10.658;2023-03-23T00:35:17;6.13;;;3.03;;
25984;SDS011;66753;53.848;10.658;2023-03-23T00:45:18;6.63;;;3.15;;
25984;SDS011;66753;53.848;10.658;2023-03-23T00:55:18;8.63;;;3.65;;
25984;SDS011;66753;53.848;10.658;2023-03-23T01:05:19;8.02;;;4.32;;
25984;SDS011;66753;53.848;10.658;2023-03-23T01:15:21;8.00;;;3.95;;
25984;SDS011;66753;53.848;10.658;2023-03-23T01:25:22;8.07;;;4.50;;
25984;SDS011;66753;53.848;10.658;2023-03-23T01:35:22;7.95;;;4.20;;
25984;SDS011;66753;53.848;10.658;2023-03-23T01:45:24;9.07;;;4.72;;
25984;SDS011;66753;53.848;10.658;2023-03-23T01:55:27;9.43;;;4.90;;
25984;SDS011;66753;53.848;10.658;2023-03-23T02:05:32;8.68;;;4.28;;
25984;SDS011;66753;53.848;10.658;2023-03-23T02:46:20;8.60;;;4.22;;
25984;SDS011;66753;53.848;10.658;2023-03-23T02:56:23;7.97;;;4.60;;
25984;SDS011;66753;53.848;10.658;2023-03-23T03:06:36;8.02;;;4.32;;
25984;SDS011;66753;53.848;10.658;2023-03-23T03:27:11;7.53;;;4.28;;
25984;SDS011;66753;53.848;10.658;2023-03-23T03:37:17;6.20;;;3.97;;
25984;SDS011;66753;53.848;10.658;2023-03-23T03:47:18;7.32;;;3.67;;
25984;SDS011;66753;53.848;10.658;2023-03-23T03:57:19;6.60;;;4.17;;
25984;SDS011;66753;53.848;10.658;2023-03-23T04:07:20;7.55;;;4.28;;
25984;SDS011;66753;53.848;10.658;2023-03-23T04:17:21;7.40;;;4.75;;
25984;SDS011;66753;53.848;10.658;2023-03-23T04:27:21;8.18;;;4.50;;
25984;SDS011;66753;53.848;10.658;2023-03-23T04:37:23;7.03;;;4.60;;
25984;SDS011;66753;53.848;10.658;2023-03-23T04:47:26;8.82;;;4.65;;
25984;SDS011;66753;53.848;10.658;2023-03-23T04:57:29;10.18;;;5.32;;
25984;SDS011;66753;53.848;10.658;2023-03-23T05:07:31;8.98;;;4.95;;
25984;SDS011;66753;53.848;10.658;2023-03-23T05:17:32;9.37;;;5.20;;
25984;SDS011;66753;53.848;10.658;2023-03-23T05:27:33;8.30;;;5.22;;
25984;SDS011;66753;53.848;10.658;2023-03-23T05:37:34;9.65;;;5.20;;
25984;SDS011;66753;53.848;10.658;2023-03-23T05:47:34;12.00;;;5.82;;
25984;SDS011;66753;53.848;10.658;2023-03-23T05:57:35;8.48;;;5.65;;
25984;SDS011;66753;53.848;10.658;2023-03-23T06:07:36;9.47;;;5.80;;
25984;SDS011;66753;53.848;10.658;2023-03-23T06:17:37;9.40;;;5.65;;
25984;SDS011;66753;53.848;10.658;2023-03-23T06:27:38;9.18;;;5.47;;
25984;SDS011;66753;53.848;10.658;2023-03-23T06:37:39;8.85;;;5.43;;
25984;SDS011;66753;53.848;10.658;2023-03-23T06:47:40;8.32;;;5.47;;
25984;SDS011;66753;53.848;10.658;2023-03-23T06:57:40;8.68;;;4.68;;
25984;SDS011;66753;53.848;10.658;2023-03-23T07:07:42;6.95;;;4.18;;
25984;SDS011;66753;53.848;10.658;2023-03-23T07:17:42;6.78;;;3.95;;
25984;SDS011;66753;53.848;10.658;2023-03-23T07:27:44;4.93;;;3.05;;
25984;SDS011;66753;53.848;10.658;2023-03-23T07:37:45;7.35;;;3.28;;
25984;SDS011;66753;53.848;10.658;2023-03-23T07:47:49;6.13;;;3.00;;
25984;SDS011;66753;53.848;10.658;2023-03-23T07:57:50;4.90;;;2.50;;
25984;SDS011;66753;53.848;10.658;2023-03-23T08:07:53;5.82;;;2.67;;
25984;SDS011;66753;53.848;10.658;2023-03-23T08:17:54;4.07;;;2.42;;
25984;SDS011;66753;53.848;10.658;2023-03-23T08:27:55;5.55;;;2.38;;
25984;SDS011;66753;53.848;10.658;2023-03-23T08:37:55;5.50;;;1.95;;
25984;SDS011;66753;53.848;10.658;2023-03-23T08:47:57;2.35;;;1.13;;
25984;SDS011;66753;53.848;10.658;2023-03-23T08:57:59;3.63;;;1.10;;
25984;SDS011;66753;53.848;10.658;2023-03-23T09:08:00;3.85;;;1.15;;
25984;SDS011;66753;53.848;10.658;2023-03-23T09:18:02;3.08;;;0.63;;
25984;SDS011;66753;53.848;10.658;2023-03-23T09:28:03;2.85;;;0.70;;
25984;SDS011;66753;53.848;10.658;2023-03-23T09:38:04;2.63;;;0.80;;
25984;SDS011;66753;53.848;10.658;2023-03-23T09:58:36;5.07;;;1.00;;
25984;SDS011;66753;53.848;10.658;2023-03-23T10:18:54;6.47;;;1.40;;
25984;SDS011;66753;53.848;10.658;2023-03-23T10:28:59;7.10;;;1.90;;
25984;SDS011;66753;53.848;10.658;2023-03-23T10:49:19;5.35;;;1.27;;
25984;SDS011;66753;53.848;10.658;2023-03-23T11:09:35;2.92;;;1.10;;
25984;SDS011;66753;53.848;10.658;2023-03-23T11:19:37;5.45;;;1.10;;
25984;SDS011;66753;53.848;10.658;2023-03-23T11:29:44;6.95;;;1.30;;
25984;SDS011;66753;53.848;10.658;2023-03-23T11:39:56;4.65;;;1.05;;
25984;SDS011;66753;53.848;10.658;2023-03-23T11:50:01;5.10;;;1.00;;
25984;SDS011;66753;53.848;10.658;2023-03-23T12:00:14;4.53;;;1.00;;
25984;SDS011;66753;53.848;10.658;2023-03-23T12:20:39;4.20;;;0.93;;
25984;SDS011;66753;53.848;10.658;2023-03-23T12:31:11;4.70;;;1.20;;
25984;SDS011;66753;53.848;10.658;2023-03-23T13:02:21;7.40;;;1.38;;
25984;SDS011;66753;53.848;10.658;2023-03-23T13:12:25;5.13;;;1.25;;
25984;SDS011;66753;53.848;10.658;2023-03-23T13:32:36;6.60;;;1.75;;
25984;SDS011;66753;53.848;10.658;2023-03-23T13:42:47;4.22;;;1.25;;
25984;SDS011;66753;53.848;10.658;2023-03-23T13:52:51;7.30;;;2.00;;
25984;SDS011;66753;53.848;10.658;2023-03-23T14:13:11;8.23;;;2.70;;
25984;SDS011;66753;53.848;10.658;2023-03-23T14:23:23;7.25;;;2.50;;
25984;SDS011;66753;53.848;10.658;2023-03-23T14:33:25;3.70;;;1.10;;
25984;SDS011;66753;53.848;10.658;2023-03-23T15:03:33;1.35;;;0.60;;
25984;SDS011;66753;53.848;10.658;2023-03-23T15:13:36;1.40;;;0.40;;
25984;SDS011;66753;53.848;10.658;2023-03-23T15:23:42;2.05;;;0.68;;
25984;SDS011;66753;53.848;10.658;2023-03-23T15:33:43;2.90;;;0.60;;
25984;SDS011;66753;53.848;10.658;2023-03-23T15:43:51;2.25;;;0.57;;
25984;SDS011;66753;53.848;10.658;2023-03-23T15:53:57;3.08;;;0.60;;
25984;SDS011;66753;53.848;10.658;2023-03-23T16:14:14;3.40;;;0.88;;
25984;SDS011;66753;53.848;10.658;2023-03-23T16:24:14;3.90;;;1.10;;
25984;SDS011;66753;53.848;10.658;2023-03-23T16:34:15;2.10;;;0.90;;
25984;SDS011;66753;53.848;10.658;2023-03-23T16:44:15;3.08;;;0.98;;
25984;SDS011;66753;53.848;10.658;2023-03-23T16:54:16;3.75;;;1.10;;
25984;SDS011;66753;53.848;10.658;2023-03-23T17:04:16;4.43;;;1.30;;
25984;SDS011;66753;53.848;10.658;2023-03-23T17:14:16;6.95;;;1.90;;
25984;SDS011;66753;53.848;10.658;2023-03-23T17:24:17;3.58;;;1.40;;
25984;SDS011;66753;53.848;10.658;2023-03-23T17:34:17;3.17;;;0.90;;
25984;SDS011;66753;53.848;10.658;2023-03-23T17:44:18;5.55;;;1.13;;
25984;SDS011;66753;53.848;10.658;2023-03-23T17:54:18;4.28;;;1.27;;
25984;SDS011;66753;53.848;10.658;2023-03-23T18:04:19;3.30;;;1.20;;
25984;SDS011;66753;53.848;10.658;2023-03-23T18:14:19;3.33;;;1.20;;
25984;SDS011;66753;53.848;10.658;2023-03-23T18:24:20;4.33;;;1.50;;
25984;SDS011;66753;53.848;10.658;2023-03-23T18:34:21;4.07;;;1.30;;
25984;SDS011;66753;53.848;10.658;2023-03-23T18:44:21;3.65;;;1.20;;
25984;SDS011;66753;53.848;10.658;2023-03-23T18:54:22;4.00;;;1.20;;
25984;SDS011;66753;53.848;10.658;2023-03-23T19:04:22;4.18;;;1.15;;
25984;SDS011;66753;53.848;10.658;2023-03-23T19:14:23;4.03;;;0.90;;
25984;SDS011;66753;53.848;10.658;2023-03-23T19:24:23;2.73;;;0.87;;
25984;SDS011;66753;53.848;10.658;2023-03-23T19:34:25;2.60;;;0.98;;
25984;SDS011;66753;53.848;10.658;2023-03-23T19:44:27;7.30;;;1.40;;
25984;SDS011;66753;53.848;10.658;2023-03-23T19:54:27;4.50;;;1.48;;
25984;SDS011;66753;53.848;10.658;2023-03-23T20:04:28;2.50;;;1.30;;
25984;SDS011;66753;53.848;10.658;2023-03-23T20:14:28;4.53;;;1.35;;
25984;SDS011;66753;53.848;10.658;2023-03-23T20:24:29;5.47;;;1.83;;
25984;SDS011;66753;53.848;10.658;2023-03-23T20:34:29;5.43;;;1.67;;
25984;SDS011;66753;53.848;10.658;2023-03-23T20:44:30;3.85;;;1.75;;
25984;SDS011;66753;53.848;10.658;2023-03-23T20:54:33;3.53;;;1.75;;
25984;SDS011;66753;53.848;10.658;2023-03-23T21:04:34;5.53;;;2.03;;
25984;SDS011;66753;53.848;10.658;2023-03-23T21:14:37;3.97;;;1.73;;
25984;SDS011;66753;53.848;10.658;2023-03-23T21:24:38;6.25;;;2.38;;
25984;SDS011;66753;53.848;10.658;2023-03-23T21:34:39;4.88;;;2.60;;
25984;SDS011;66753;53.848;10.658;2023-03-23T21:44:40;5.50;;;3.10;;
25984;SDS011;66753;53.848;10.658;2023-03-23T21:54:42;7.75;;;3.50;;
25984;SDS011;66753;53.848;10.658;2023-03-23T22:04:43;7.32;;;4.00;;
25984;SDS011;66753;53.848;10.658;2023-03-23T22:14:44;7.85;;;3.85;;
25984;SDS011;66753;53.848;10.658;2023-03-23T22:24:45;6.90;;;4.00;;
25984;SDS011;66753;53.848;10.658;2023-03-23T22:34:46;8.82;;;4.28;;
25984;SDS011;66753;53.848;10.658;2023-03-23T22:44:48;7.88;;;4.05;;
25984;SDS011;66753;53.848;10.658;2023-03-23T22:54:48;8.23;;;4.10;;
25984;SDS011;66753;53.848;10.658;2023-03-23T23:04:49;7.50;;;3.90;;
25984;SDS011;66753;53.848;10.658;2023-03-23T23:14:50;6.95;;;3.55;;
25984;SDS011;66753;53.848;10.658;2023-03-23T23:24:51;7.55;;;3.80;;
25984;SDS011;66753;53.848;10.658;2023-03-23T23:34:52;7.55;;;3.45;;
25984;SDS011;66753;53.848;10.658;2023-03-23T23:44:53;8.32;;;3.67;;
25984;SDS011;66753;53.848;10.658;2023-03-23T23:54:55;7.60;;;4.40;;
